Time;durP1;ratioP1;P1;durP2;ratioP2;P2;SDS_P1;SDS_P2;PMS_P1;PMS_P2;Temp;Humidity;BMP_temperature;BMP_pressure;BME280_temperature;BME280_humidity;BME280_pressure;Samples;Min_cycle;Max_cycle;Signal;HPM_P1;HPM_P2
2023/12/19 00:00:57;;;;;;;0.90;0.90;;;;;;;9.58;73.16;101278.69;5093946;28;20206;-79
2023/12/19 00:03:25;;;;;;;0.70;0.70;;;;;;;9.59;72.97;101282.16;5108222;28;20262;-79
2023/12/19 00:05:52;;;;;;;0.97;0.97;;;;;;;9.53;73.23;101276.72;5100360;28;20210;-77
2023/12/19 00:08:19;;;;;;;1.13;1.13;;;;;;;9.45;73.64;101285.06;5110639;28;20190;-78
2023/12/19 00:10:45;;;;;;;0.60;0.60;;;;;;;9.48;73.39;101286.03;5097882;28;20596;-78
2023/12/19 00:13:12;;;;;;;0.53;0.53;;;;;;;9.44;73.60;101288.50;5094206;28;20197;-78
2023/12/19 00:15:39;;;;;;;0.77;0.77;;;;;;;9.46;73.70;101275.59;5113470;28;20217;-78
2023/12/19 00:18:06;;;;;;;0.80;0.80;;;;;;;9.41;73.63;101288.41;5100271;28;20190;-79
2023/12/19 00:20:34;;;;;;;0.80;0.80;;;;;;;9.44;73.51;101279.84;5099986;28;20193;-79
2023/12/19 00:23:01;;;;;;;1.40;1.30;;;;;;;9.37;73.34;101286.50;5101257;28;20209;-78
2023/12/19 00:25:30;;;;;;;0.90;0.90;;;;;;;9.22;73.43;101267.78;5106817;28;20205;-79
2023/12/19 00:27:58;;;;;;;1.03;0.80;;;;;;;9.37;73.50;101286.50;5060939;28;20189;-79
2023/12/19 00:30:25;;;;;;;0.70;0.70;;;;;;;9.35;73.77;101290.72;5093516;28;20202;-78
2023/12/19 00:32:52;;;;;;;0.90;0.90;;;;;;;9.24;73.25;101267.84;5041922;28;20705;-78
2023/12/19 00:35:19;;;;;;;0.77;0.77;;;;;;;9.36;73.32;101295.09;5109779;28;20729;-79
2023/12/19 00:37:47;;;;;;;1.80;1.53;;;;;;;9.43;73.17;101294.50;5113488;28;20741;-78
2023/12/19 00:40:14;;;;;;;0.60;0.60;;;;;;;9.34;73.12;101291.56;5112602;28;20198;-78
2023/12/19 00:42:42;;;;;;;0.60;0.60;;;;;;;9.35;73.05;101295.91;5112837;28;20205;-78
2023/12/19 00:45:09;;;;;;;0.70;0.70;;;;;;;9.38;72.74;101292.56;5104390;28;20229;-79
2023/12/19 00:47:36;;;;;;;0.77;0.77;;;;;;;9.28;73.44;101291.31;5059822;28;20258;-79
2023/12/19 00:50:03;;;;;;;1.00;1.00;;;;;;;9.30;73.32;101300.03;5096899;28;20213;-78
2023/12/19 00:52:30;;;;;;;0.70;0.70;;;;;;;9.11;74.08;101271.66;5093505;28;20678;-79
2023/12/19 00:54:58;;;;;;;0.73;0.73;;;;;;;9.27;74.81;101299.91;5049735;28;20229;-79
2023/12/19 00:57:25;;;;;;;0.90;0.90;;;;;;;9.19;74.56;101290.97;5111505;28;20582;-79
2023/12/19 00:59:52;;;;;;;0.70;0.70;;;;;;;9.18;74.05;101289.19;5061679;28;20197;-78
2023/12/19 01:02:19;;;;;;;0.70;0.70;;;;;;;9.05;74.49;101276.59;5106046;28;20268;-77
2023/12/19 01:04:45;;;;;;;0.70;0.70;;;;;;;9.23;75.13;101313.56;5061004;28;20202;-78
2023/12/19 01:07:12;;;;;;;1.07;1.07;;;;;;;9.08;75.54;101294.81;5092920;28;20305;-79
2023/12/19 01:09:39;;;;;;;0.80;0.80;;;;;;;9.10;75.72;101315.56;5092705;28;20546;-78
2023/12/19 01:12:07;;;;;;;0.60;0.60;;;;;;;9.15;75.54;101320.13;5110932;28;20700;-78
2023/12/19 01:14:34;;;;;;;0.93;0.93;;;;;;;9.15;76.35;101309.75;5107045;28;20190;-78
2023/12/19 01:17:01;;;;;;;0.70;0.70;;;;;;;8.98;76.62;101290.09;5108431;28;20608;-77
2023/12/19 01:19:28;;;;;;;0.80;0.80;;;;;;;9.09;76.46;101308.66;5048979;28;20255;-78
2023/12/19 01:21:55;;;;;;;0.70;0.70;;;;;;;8.95;76.58;101284.81;5107619;28;20209;-78
2023/12/19 01:24:22;;;;;;;1.17;1.17;;;;;;;9.06;76.57;101293.84;5107698;28;20204;-78
2023/12/19 01:26:51;;;;;;;0.70;0.70;;;;;;;8.99;76.84;101301.34;5096403;28;20193;-78
2023/12/19 01:29:19;;;;;;;1.00;1.00;;;;;;;8.99;77.66;101297.00;5104476;28;20210;-77
2023/12/19 01:31:46;;;;;;;1.00;1.00;;;;;;;8.90;78.24;101291.47;5056665;28;20205;-77
2023/12/19 01:34:13;;;;;;;0.70;0.70;;;;;;;8.77;77.54;101261.66;5046461;28;20226;-78
2023/12/19 01:36:41;;;;;;;0.77;0.77;;;;;;;8.95;77.57;101285.66;5071341;28;20231;-78
2023/12/19 01:39:09;;;;;;;0.70;0.70;;;;;;;8.86;76.63;101274.06;5089677;28;20203;-78
2023/12/19 01:41:36;;;;;;;0.90;0.90;;;;;;;8.99;76.50;101288.41;5049772;28;20201;-78
2023/12/19 01:44:03;;;;;;;0.70;0.70;;;;;;;8.98;76.57;101290.09;5095665;28;20202;-77
2023/12/19 01:46:31;;;;;;;0.80;0.80;;;;;;;9.07;76.37;101285.28;5100225;28;20220;-79
2023/12/19 01:49:00;;;;;;;0.70;0.70;;;;;;;9.08;75.52;101286.16;5091882;28;20182;-78
2023/12/19 01:51:27;;;;;;;0.70;0.70;;;;;;;9.11;75.70;101284.59;5093543;28;20205;-78
2023/12/19 01:53:55;;;;;;;0.70;0.70;;;;;;;9.06;75.54;101283.50;5092146;28;20613;-78
2023/12/19 01:56:23;;;;;;;3.13;1.23;;;;;;;8.88;75.23;101249.16;5092223;28;20230;-78
2023/12/19 01:58:50;;;;;;;1.13;1.13;;;;;;;9.12;75.38;101275.13;5100212;28;20198;-78
2023/12/19 02:01:18;;;;;;;1.47;1.30;;;;;;;9.14;75.05;101282.13;5099702;28;20201;-79
2023/12/19 02:03:47;;;;;;;4.13;0.90;;;;;;;9.15;75.53;101278.72;5109524;28;20213;-78
2023/12/19 02:06:15;;;;;;;0.70;0.70;;;;;;;9.06;75.13;101275.75;5091865;28;20194;-78
2023/12/19 02:08:41;;;;;;;0.97;0.97;;;;;;;9.06;76.95;101280.06;5065579;28;20330;-79
2023/12/19 02:11:08;;;;;;;0.80;0.80;;;;;;;8.85;77.22;101257.66;5099426;28;20205;-79
2023/12/19 02:13:35;;;;;;;1.20;1.20;;;;;;;8.95;76.39;101282.22;5108432;28;20198;-79
2023/12/19 02:16:03;;;;;;;0.60;0.60;;;;;;;8.94;77.56;101275.28;5089590;28;20213;-78
2023/12/19 02:18:29;;;;;;;1.00;1.00;;;;;;;8.50;78.33;101231.19;5111444;28;20196;-78
2023/12/19 02:20:58;;;;;;;0.70;0.70;;;;;;;8.83;78.21;101284.28;5092963;28;20198;-78
2023/12/19 02:23:26;;;;;;;0.60;0.60;;;;;;;8.89;78.24;101276.78;5111697;28;20200;-78
2023/12/19 02:25:53;;;;;;;0.60;0.60;;;;;;;8.85;77.07;101273.19;5061748;28;20201;-77
2023/12/19 02:28:20;;;;;;;0.70;0.70;;;;;;;8.97;76.67;101262.47;5101582;28;20213;-77
2023/12/19 02:30:47;;;;;;;0.70;0.70;;;;;;;8.98;76.01;101269.41;5094501;28;20202;-77
2023/12/19 02:33:13;;;;;;;0.60;0.60;;;;;;;9.01;75.56;101266.94;5096835;28;20228;-78
2023/12/19 02:35:40;;;;;;;0.70;0.70;;;;;;;8.93;75.83;101263.16;5099684;28;20278;-77
2023/12/19 02:38:07;;;;;;;0.90;0.90;;;;;;;9.01;77.00;101277.28;5110650;28;20215;-78
2023/12/19 02:40:35;;;;;;;0.70;0.70;;;;;;;9.01;76.83;101279.88;5090705;28;20276;-78
2023/12/19 02:43:02;;;;;;;0.60;0.60;;;;;;;8.98;76.46;101284.94;5110866;28;20661;-77
2023/12/19 02:45:31;;;;;;;0.80;0.80;;;;;;;8.94;76.93;101280.44;5099436;28;20201;-77
2023/12/19 02:47:58;;;;;;;0.60;0.60;;;;;;;8.86;77.19;101256.84;5087280;28;20198;-77
2023/12/19 02:50:25;;;;;;;0.77;0.77;;;;;;;8.95;77.03;101264.13;5095315;28;20669;-77
2023/12/19 02:52:52;;;;;;;1.07;1.07;;;;;;;8.99;76.95;101260.81;5095332;28;20210;-77
2023/12/19 02:55:18;;;;;;;0.50;0.50;;;;;;;8.92;76.63;101258.78;5099338;28;20224;-77
2023/12/19 02:57:47;;;;;;;1.10;1.00;;;;;;;9.00;76.85;101260.00;5101781;28;20193;-77
2023/12/19 03:00:14;;;;;;;0.60;0.60;;;;;;;8.84;77.00;101245.56;5113468;28;20208;-78
2023/12/19 03:02:41;;;;;;;0.80;0.80;;;;;;;8.94;76.44;101257.16;5097857;28;20198;-78
2023/12/19 03:05:08;;;;;;;0.60;0.60;;;;;;;8.95;76.81;101253.78;5095436;28;20210;-76
2023/12/19 03:07:35;;;;;;;0.60;0.60;;;;;;;8.83;76.27;101237.75;5101934;28;20385;-77
2023/12/19 03:10:05;;;;;;;1.07;1.07;;;;;;;8.85;77.06;101236.09;5105501;28;20599;-77
2023/12/19 03:12:32;;;;;;;0.67;0.67;;;;;;;8.86;77.50;101248.19;5091896;28;20194;-77
2023/12/19 03:15:00;;;;;;;0.60;0.60;;;;;;;8.84;76.85;101260.22;5100759;28;20598;-76
2023/12/19 03:17:27;;;;;;;0.77;0.77;;;;;;;8.88;77.54;101249.16;5113234;28;20225;-78
2023/12/19 03:19:54;;;;;;;0.87;0.87;;;;;;;8.84;77.57;101267.97;5102957;28;20206;-79
2023/12/19 03:22:21;;;;;;;0.67;0.67;;;;;;;8.71;78.24;101242.41;5094741;28;20595;-77
2023/12/19 03:24:47;;;;;;;1.23;0.90;;;;;;;8.79;77.75;101246.19;5099885;28;20198;-77
2023/12/19 03:27:14;;;;;;;1.10;1.10;;;;;;;8.85;77.32;101252.50;5094910;28;20607;-77
2023/12/19 03:29:41;;;;;;;0.60;0.60;;;;;;;8.86;77.64;101237.84;5094783;28;20639;-78
2023/12/19 03:32:10;;;;;;;0.70;0.70;;;;;;;8.83;77.23;101227.41;5108634;28;20197;-77
2023/12/19 03:34:37;;;;;;;0.70;0.70;;;;;;;8.90;77.18;101240.63;5099846;28;20581;-77
2023/12/19 03:37:04;;;;;;;0.70;0.70;;;;;;;8.87;77.44;101243.09;5108036;28;20308;-77
2023/12/19 03:39:31;;;;;;;0.60;0.60;;;;;;;8.93;76.86;101237.28;5106110;28;20260;-79
2023/12/19 03:41:58;;;;;;;0.77;0.77;;;;;;;8.82;77.30;101221.34;5094238;28;20217;-77
2023/12/19 03:44:25;;;;;;;0.77;0.77;;;;;;;8.88;77.92;101231.06;5040724;28;20261;-78
2023/12/19 03:46:51;;;;;;;0.60;0.60;;;;;;;8.86;77.66;101232.69;5095811;28;20212;-78
2023/12/19 03:49:20;;;;;;;0.70;0.70;;;;;;;8.88;77.52;101236.25;5096074;28;20198;-77
2023/12/19 03:51:48;;;;;;;0.60;0.60;;;;;;;8.87;77.13;101249.97;5092016;28;20292;-79
2023/12/19 03:54:15;;;;;;;1.07;1.07;;;;;;;8.86;77.27;101238.75;5093875;28;20202;-78
2023/12/19 03:56:42;;;;;;;0.60;0.60;;;;;;;9.00;76.68;101241.88;5098108;28;20286;-77
2023/12/19 03:59:10;;;;;;;0.80;0.80;;;;;;;9.06;75.54;101239.53;5098459;28;20194;-77
2023/12/19 04:01:44;;;;;;;1.10;1.10;;;;;;;9.09;75.96;101236.19;5107474;28;20193;-78
2023/12/19 04:04:11;;;;;;;0.70;0.70;;;;;;;9.07;75.70;101230.06;5098527;28;20577;-78
2023/12/19 04:06:40;;;;;;;0.87;0.87;;;;;;;8.99;76.26;101223.72;5104390;28;20198;-78
2023/12/19 04:09:07;;;;;;;3.57;3.23;;;;;;;9.06;76.59;101231.75;5099386;28;20280;-78
2023/12/19 04:11:34;;;;;;;0.70;0.70;;;;;;;9.08;76.05;101232.72;5045166;28;20205;-78
2023/12/19 04:14:00;;;;;;;0.70;0.70;;;;;;;9.07;74.72;101202.50;5093460;28;20216;-79
2023/12/19 04:16:27;;;;;;;0.70;0.70;;;;;;;9.05;75.41;101198.97;5100605;28;20220;-78
2023/12/19 04:18:54;;;;;;;0.77;0.77;;;;;;;9.20;75.04;101214.22;5110158;28;20206;-77
2023/12/19 04:21:21;;;;;;;0.90;0.90;;;;;;;9.23;74.50;101214.31;5109585;28;20197;-78
2023/12/19 04:23:49;;;;;;;0.70;0.70;;;;;;;9.14;74.93;101199.31;5099217;28;20647;-77
2023/12/19 04:26:19;;;;;;;0.60;0.60;;;;;;;9.22;75.28;101213.44;5099603;28;20189;-78
2023/12/19 04:28:45;;;;;;;0.70;0.70;;;;;;;9.29;73.90;101228.38;5113717;28;20205;-79
2023/12/19 04:31:12;;;;;;;0.70;0.70;;;;;;;9.31;73.68;101224.13;5102966;28;20193;-78
2023/12/19 04:33:39;;;;;;;0.90;0.90;;;;;;;9.23;73.75;101204.88;5092694;28;20729;-79
2023/12/19 04:36:07;;;;;;;1.77;1.00;;;;;;;9.38;73.21;101218.38;5095834;28;20709;-78
2023/12/19 04:38:34;;;;;;;1.30;1.30;;;;;;;9.34;73.26;101218.22;5113593;28;20657;-75
2023/12/19 04:41:03;;;;;;;0.80;0.80;;;;;;;9.42;72.57;101217.66;5105584;28;20202;-78
2023/12/19 04:43:30;;;;;;;0.77;0.77;;;;;;;9.42;72.54;101214.19;5060499;28;20232;-78
2023/12/19 04:45:56;;;;;;;0.63;0.63;;;;;;;9.34;72.80;101208.75;5103084;28;20217;-78
2023/12/19 04:48:23;;;;;;;1.20;1.20;;;;;;;9.20;73.19;101194.41;5108967;28;20216;-78
2023/12/19 04:50:50;;;;;;;0.73;0.73;;;;;;;9.35;73.19;101215.66;5110080;28;20668;-78
2023/12/19 04:53:17;;;;;;;0.70;0.70;;;;;;;9.30;73.40;101222.38;5110593;28;20193;-78
2023/12/19 04:55:44;;;;;;;0.80;0.80;;;;;;;9.29;73.71;101227.50;5092576;28;20194;-78
2023/12/19 04:58:12;;;;;;;0.77;0.77;;;;;;;9.33;73.34;101222.50;5104143;28;20914;-78
2023/12/19 05:00:39;;;;;;;1.00;1.00;;;;;;;9.32;73.19;101230.19;5063119;28;20262;-78
2023/12/19 05:03:05;;;;;;;2.03;1.50;;;;;;;9.35;73.29;101214.78;5111248;28;20204;-78
2023/12/19 05:05:32;;;;;;;0.80;0.80;;;;;;;9.38;72.78;101226.13;5063155;28;20207;-79
2023/12/19 05:07:59;;;;;;;1.10;1.10;;;;;;;9.40;72.28;101221.91;5045736;28;20260;-77
2023/12/19 05:10:26;;;;;;;0.63;0.63;;;;;;;9.37;72.51;101229.56;5096308;28;20198;-79
2023/12/19 05:12:52;;;;;;;0.70;0.70;;;;;;;8.94;72.20;101153.69;5048502;28;20202;-78
2023/12/19 05:15:21;;;;;;;1.17;1.17;;;;;;;9.44;72.55;101238.44;5092363;28;20635;-78
2023/12/19 05:17:48;;;;;;;0.70;0.70;;;;;;;9.25;73.50;101221.31;5092840;28;20214;-76
2023/12/19 05:20:14;;;;;;;0.60;0.60;;;;;;;9.28;74.22;101239.53;5092612;28;20213;-77
2023/12/19 05:22:41;;;;;;;1.10;1.00;;;;;;;9.13;74.42;101228.59;5092239;28;20271;-77
2023/12/19 05:25:08;;;;;;;0.60;0.60;;;;;;;9.19;75.18;101246.97;5094424;28;20588;-78
2023/12/19 05:27:36;;;;;;;0.70;0.70;;;;;;;8.75;75.31;101196.06;5092295;28;20198;-79
2023/12/19 05:30:04;;;;;;;2.10;1.27;;;;;;;9.13;75.08;101261.38;5106149;28;20209;-78
2023/12/19 05:32:32;;;;;;;0.77;0.77;;;;;;;9.16;75.28;101261.50;5110435;28;20701;-78
2023/12/19 05:34:59;;;;;;;0.80;0.80;;;;;;;9.03;75.13;101243.69;5112104;28;20197;-77
2023/12/19 05:37:26;;;;;;;0.70;0.70;;;;;;;9.18;74.81;101267.59;5090426;28;20249;-78
2023/12/19 05:39:52;;;;;;;0.60;0.60;;;;;;;9.11;74.95;101276.81;5088933;28;20209;-78
2023/12/19 05:42:19;;;;;;;0.90;0.90;;;;;;;9.14;75.19;101281.22;5091841;28;20209;-77
2023/12/19 05:44:46;;;;;;;0.90;0.90;;;;;;;9.02;75.62;101273.00;5091867;28;20291;-78
2023/12/19 05:47:13;;;;;;;0.73;0.73;;;;;;;8.96;75.95;101278.78;5093876;28;20190;-79
2023/12/19 05:49:41;;;;;;;1.03;1.03;;;;;;;9.00;76.31;101278.09;5094897;28;20197;-78
2023/12/19 05:52:08;;;;;;;0.70;0.70;;;;;;;8.97;76.72;101275.38;5094618;28;20295;-78
2023/12/19 05:54:35;;;;;;;1.17;1.10;;;;;;;8.93;77.28;101276.97;5091281;28;20201;-77
2023/12/19 05:57:02;;;;;;;0.60;0.60;;;;;;;9.00;76.96;101272.03;5091007;28;20242;-75
2023/12/19 05:59:28;;;;;;;0.70;0.70;;;;;;;8.92;76.10;101258.78;5092284;28;20259;-77
2023/12/19 06:01:55;;;;;;;0.77;0.77;;;;;;;9.02;76.63;101275.59;5094823;28;20219;-77
2023/12/19 06:04:22;;;;;;;0.80;0.80;;;;;;;8.94;76.74;101272.69;5102459;28;20673;-79
2023/12/19 06:06:50;;;;;;;0.77;0.77;;;;;;;8.98;76.72;101272.00;5095239;28;20233;-80
2023/12/19 06:09:17;;;;;;;0.80;0.80;;;;;;;8.93;76.99;101276.09;5084024;28;20198;-78
2023/12/19 06:11:44;;;;;;;0.90;0.90;;;;;;;8.96;77.26;101276.19;5086489;28;20595;-79
2023/12/19 06:14:11;;;;;;;0.87;0.87;;;;;;;8.91;77.38;101273.44;5075218;28;20207;-77
2023/12/19 06:16:38;;;;;;;0.70;0.70;;;;;;;8.92;77.01;101275.19;5069825;28;20789;-78
2023/12/19 06:19:05;;;;;;;1.10;1.10;;;;;;;9.01;79.53;101277.28;5091346;28;20198;-76
2023/12/19 06:21:32;;;;;;;1.53;1.43;;;;;;;8.86;77.83;101253.38;5086494;28;20206;-74
2023/12/19 06:24:00;;;;;;;1.20;1.20;;;;;;;8.96;78.71;101276.19;5086577;28;20206;-79
2023/12/19 06:26:27;;;;;;;1.73;1.63;;;;;;;8.81;79.97;101250.59;5085791;28;20655;-79
2023/12/19 06:28:53;;;;;;;0.80;0.80;;;;;;;8.69;79.75;101244.06;5089454;28;20207;-78
2023/12/19 06:31:22;;;;;;;0.90;0.90;;;;;;;8.63;78.48;101229.19;5084760;28;20651;-78
2023/12/19 06:33:48;;;;;;;0.90;0.90;;;;;;;8.09;77.92;101129.56;5087589;28;20318;-76
2023/12/19 06:36:29;;;;;;;1.27;1.27;;;;;;;8.43;77.71;101163.75;5084964;28;20264;-76
2023/12/19 06:38:55;;;;;;;0.70;0.70;;;;;;;9.11;84.19;101273.34;5055508;28;20670;-76
2023/12/19 06:41:23;;;;;;;0.90;0.90;;;;;;;8.78;77.71;101215.97;5085105;28;20214;-78
2023/12/19 06:43:50;;;;;;;0.80;0.80;;;;;;;9.18;77.66;101273.66;5071546;28;20241;-76
2023/12/19 06:46:17;;;;;;;0.60;0.60;;;;;;;9.11;77.46;101256.13;5085097;28;20205;-76
2023/12/19 06:48:44;;;;;;;1.00;1.00;;;;;;;9.22;78.78;101270.38;5070494;28;20203;-76
2023/12/19 06:51:11;;;;;;;1.30;1.23;;;;;;;9.22;78.86;101272.97;5086844;28;20190;-77
2023/12/19 06:53:39;;;;;;;1.10;1.10;;;;;;;9.08;79.54;101248.25;5090618;28;20670;-77
2023/12/19 06:56:07;;;;;;;1.00;1.00;;;;;;;9.15;80.44;101258.00;5047156;28;20194;-79
2023/12/19 06:58:35;;;;;;;0.80;0.80;;;;;;;9.28;80.56;101273.19;5081408;28;20728;-81
2023/12/19 07:01:02;;;;;;;1.40;1.30;;;;;;;9.27;79.92;101274.03;5082878;28;20201;-77
2023/12/19 07:03:29;;;;;;;2.23;2.13;;;;;;;8.63;79.74;101171.44;5089234;28;20658;-77
2023/12/19 07:05:56;;;;;;;2.53;1.17;;;;;;;9.12;80.02;101269.94;5078383;28;20209;-76
2023/12/19 07:08:23;;;;;;;1.17;1.17;;;;;;;8.70;82.13;101195.00;5076688;28;20280;-76
2023/12/19 07:10:52;;;;;;;0.80;0.80;;;;;;;9.06;80.61;101257.63;5071685;28;20285;-79
2023/12/19 07:13:19;;;;;;;1.17;1.07;;;;;;;8.98;83.80;101242.66;5094447;28;20203;-77
2023/12/19 07:15:47;;;;;;;1.00;1.00;;;;;;;9.28;81.51;101278.38;5105456;28;20202;-77
2023/12/19 07:18:14;;;;;;;0.80;0.80;;;;;;;9.24;80.80;101279.06;5105259;28;20222;-76
2023/12/19 07:20:41;;;;;;;1.20;1.20;;;;;;;9.09;80.66;101262.97;5103732;28;20210;-76
2023/12/19 07:23:07;;;;;;;1.43;1.43;;;;;;;9.13;80.22;101246.72;5079152;28;20626;-76
2023/12/19 07:25:35;;;;;;;6.93;4.93;;;;;;;9.08;81.13;101243.06;5050961;28;20646;-78
2023/12/19 07:28:03;;;;;;;13.57;8.40;;;;;;;8.80;81.82;101207.47;5091606;28;20263;-78
2023/12/19 07:30:30;;;;;;;8.83;4.00;;;;;;;8.69;82.29;101195.81;5090005;28;20667;-77
2023/12/19 07:32:59;;;;;;;4.20;3.03;;;;;;;9.18;82.87;101281.41;5077753;28;20234;-78
2023/12/19 07:35:25;;;;;;;4.57;3.43;;;;;;;9.10;83.67;101256.06;5090193;28;20304;-76
2023/12/19 07:37:52;;;;;;;7.03;3.00;;;;;;;9.31;84.03;101275.88;5086543;28;20259;-76
2023/12/19 07:40:19;;;;;;;9.50;5.07;;;;;;;8.91;84.27;101213.06;5088307;28;20585;-76
2023/12/19 07:42:46;;;;;;;8.17;5.33;;;;;;;9.28;83.97;101273.19;5090106;28;20260;-77
2023/12/19 07:45:13;;;;;;;4.50;2.80;;;;;;;9.46;83.96;101280.78;5085703;28;20645;-78
2023/12/19 07:47:39;;;;;;;2.37;2.20;;;;;;;9.62;100.00;101257.25;5077382;28;20294;-73
2023/12/19 07:50:10;;;;;;;5.63;3.20;;;;;;;9.71;100.00;101247.22;5084285;28;20206;-76
2023/12/19 07:52:37;;;;;;;10.90;2.63;;;;;;;9.50;88.18;101214.47;5091309;28;20217;-77
2023/12/19 07:55:09;;;;;;;1.43;1.43;;;;;;;9.60;84.64;101217.47;5082594;28;20242;-77
2023/12/19 07:57:36;;;;;;;3.90;2.30;;;;;;;9.87;84.94;101284.94;5054528;28;20304;-76
2023/12/19 08:00:03;;;;;;;1.30;1.30;;;;;;;9.55;88.04;101210.38;5090232;28;20585;-76
2023/12/19 08:02:32;;;;;;;2.20;1.23;;;;;;;9.88;86.20;101255.63;5088059;28;20225;-76
2023/12/19 08:04:59;;;;;;;3.97;2.13;;;;;;;9.90;83.58;101248.78;5080691;28;20202;-78
2023/12/19 08:07:27;;;;;;;2.30;2.20;;;;;;;9.94;83.50;101242.91;5093905;28;20206;-77
2023/12/19 08:09:54;;;;;;;1.70;1.50;;;;;;;10.01;79.93;101257.84;5079530;28;20213;-77
2023/12/19 08:12:21;;;;;;;2.23;2.00;;;;;;;9.59;79.58;101173.41;5092917;28;20701;-77
2023/12/19 08:14:47;;;;;;;2.40;2.30;;;;;;;10.15;79.03;101268.72;5089932;28;20202;-76
2023/12/19 08:17:14;;;;;;;7.30;2.77;;;;;;;10.17;77.11;101248.91;5083409;28;20761;-76
2023/12/19 08:19:41;;;;;;;1.47;1.40;;;;;;;10.18;77.25;101251.56;5093698;28;20212;-76
2023/12/19 08:22:08;;;;;;;2.23;2.03;;;;;;;10.12;76.69;101220.22;5093578;28;20209;-76
2023/12/19 08:24:37;;;;;;;0.95;0.95;;;;;;;10.47;75.79;101269.84;5093953;28;20243;-77
2023/12/19 08:27:04;;;;;;;1.58;1.58;;;;;;;10.38;74.70;101250.53;5093432;28;20194;-76
2023/12/19 08:29:31;;;;;;;21.50;1.58;;;;;;;10.53;74.85;101275.22;5041615;28;20209;-77
2023/12/19 08:31:58;;;;;;;0.93;0.93;;;;;;;9.92;73.65;101153.88;5057592;28;20202;-77
2023/12/19 08:34:24;;;;;;;1.08;1.02;;;;;;;10.49;74.94;101257.84;5093082;28;20190;-76
2023/12/19 08:36:51;;;;;;;0.93;0.93;;;;;;;9.66;74.16;101108.06;5093354;28;20208;-77
2023/12/19 08:39:18;;;;;;;1.30;1.30;;;;;;;9.84;74.43;101165.69;5088384;28;20210;-77
2023/12/19 08:41:46;;;;;;;1.35;1.35;;;;;;;10.06;74.67;101204.44;5084402;28;20201;-76
2023/12/19 08:44:13;;;;;;;0.87;0.87;;;;;;;10.37;75.40;101259.16;5078945;28;20282;-76
2023/12/19 08:46:40;;;;;;;0.80;0.80;;;;;;;10.44;75.08;101255.06;5092698;28;20206;-76
2023/12/19 08:49:07;;;;;;;1.77;1.77;;;;;;;10.39;74.49;101235.88;5093022;28;20205;-76
2023/12/19 08:51:33;;;;;;;1.93;1.83;;;;;;;10.20;76.06;101234.34;5092889;28;20263;-76
2023/12/19 08:54:00;;;;;;;1.73;1.58;;;;;;;10.42;76.04;101247.22;5092670;28;20617;-75
2023/12/19 08:56:27;;;;;;;1.30;1.30;;;;;;;10.19;75.49;101196.31;5092686;28;20580;-76
2023/12/19 08:58:55;;;;;;;2.05;1.40;;;;;;;9.89;76.24;101125.25;5092800;28;20732;-76
2023/12/19 09:01:22;;;;;;;1.77;1.67;;;;;;;10.54;77.28;101236.41;5053838;28;20210;-76
2023/12/19 09:03:49;;;;;;;1.63;1.63;;;;;;;10.25;77.17;101170.59;5048078;28;20205;-77
2023/12/19 09:06:15;;;;;;;0.93;0.93;;;;;;;10.59;77.66;101228.78;5092814;28;20205;-75
2023/12/19 09:08:42;;;;;;;3.38;2.42;;;;;;;10.01;79.89;101127.41;5083694;28;20241;-76
2023/12/19 09:11:09;;;;;;;0.90;0.90;;;;;;;10.24;83.17;101132.53;5091084;28;20640;-74
2023/12/19 09:13:38;;;;;;;2.15;1.90;;;;;;;10.74;78.51;101203.31;5082197;28;20214;-74
2023/12/19 09:16:07;;;;;;;1.05;1.05;;;;;;;10.51;87.92;101123.91;5086443;28;20229;-76
2023/12/19 09:18:34;;;;;;;1.20;1.00;;;;;;;10.95;75.76;101193.66;5090916;28;20682;-76
2023/12/19 09:21:01;;;;;;;0.63;0.63;;;;;;;10.89;74.88;101193.44;5080789;28;20205;-76
2023/12/19 09:23:28;;;;;;;0.80;0.80;;;;;;;10.98;74.30;101185.06;5091593;28;20199;-76
2023/12/19 09:25:54;;;;;;;2.00;1.83;;;;;;;11.00;74.08;101166.09;5091858;28;20249;-75
2023/12/19 09:28:23;;;;;;;0.60;0.60;;;;;;;11.19;74.18;101173.63;5091660;28;20264;-75
2023/12/19 09:30:50;;;;;;;0.77;0.77;;;;;;;11.23;73.67;101165.09;5077653;28;20236;-75
2023/12/19 09:33:18;;;;;;;1.27;1.27;;;;;;;11.18;74.57;101134.63;5079581;28;20287;-76
2023/12/19 09:35:45;;;;;;;0.63;0.63;;;;;;;11.20;74.53;101139.03;5089640;28;20598;-76
2023/12/19 09:38:12;;;;;;;1.13;0.90;;;;;;;11.41;74.31;101150.03;5081216;28;20222;-75
2023/12/19 09:40:40;;;;;;;1.13;1.13;;;;;;;11.38;75.46;101139.56;5055018;28;20276;-76
2023/12/19 09:43:07;;;;;;;0.73;0.73;;;;;;;11.42;74.96;101151.78;5091326;28;20210;-77
2023/12/19 09:45:35;;;;;;;3.60;1.20;;;;;;;11.43;75.12;101143.19;5070062;28;20202;-76
2023/12/19 09:48:03;;;;;;;0.70;0.70;;;;;;;11.58;75.33;101147.03;5084144;28;20676;-76
2023/12/19 09:50:37;;;;;;;0.60;0.60;;;;;;;11.65;75.26;101143.78;5085240;28;20194;-76
2023/12/19 09:53:09;;;;;;;0.77;0.77;;;;;;;11.66;75.11;101141.22;5082447;28;20277;-77
2023/12/19 09:55:42;;;;;;;1.20;1.00;;;;;;;11.67;73.81;101145.56;5091355;28;20616;-76
2023/12/19 09:58:10;;;;;;;1.52;1.42;;;;;;;11.39;74.91;101107.56;5082045;28;20688;-77
2023/12/19 10:00:39;;;;;;;0.95;0.95;;;;;;;11.62;74.55;101128.09;5091257;28;20198;-76
2023/12/19 10:03:06;;;;;;;2.20;1.98;;;;;;;11.57;75.29;101108.91;5072141;28;20206;-76
2023/12/19 10:05:34;;;;;;;0.85;0.85;;;;;;;11.50;74.50;101118.25;5091250;28;20198;-76
2023/12/19 10:08:01;;;;;;;0.80;0.80;;;;;;;11.71;73.80;101128.38;5091299;28;20259;-76
2023/12/19 10:10:49;;;;;;;1.20;1.20;;;;;;;11.87;72.85;101130.56;5091094;28;20206;-76
2023/12/19 10:13:26;;;;;;;1.00;1.00;;;;;;;11.90;73.20;101128.03;5034013;28;20203;-75
2023/12/19 10:16:00;;;;;;;1.65;1.65;;;;;;;11.70;70.87;101077.25;5083467;28;20739;-76
2023/12/19 10:18:27;;;;;;;1.08;1.08;;;;;;;11.68;71.45;101071.13;5086531;28;20260;-76
2023/12/19 10:21:04;;;;;;;0.77;0.77;;;;;;;12.12;71.16;101116.47;5091260;28;20330;-76
2023/12/19 10:23:31;;;;;;;0.95;0.95;;;;;;;12.17;71.61;101130.47;5090690;28;20228;-74
2023/12/19 10:25:58;;;;;;;1.70;1.60;;;;;;;11.49;70.73;101009.13;5090883;28;20198;-74
2023/12/19 10:28:24;;;;;;;0.68;0.68;;;;;;;12.12;70.72;101117.38;5091089;28;20210;-77
2023/12/19 10:30:51;;;;;;;3.40;2.72;;;;;;;12.15;70.26;101117.44;5090797;28;20642;-75
2023/12/19 10:33:18;;;;;;;0.98;0.98;;;;;;;12.15;70.11;101117.44;5079142;28;20267;-77
2023/12/19 10:35:45;;;;;;;0.95;0.95;;;;;;;11.76;70.87;101038.47;5088905;28;20197;-75
2023/12/19 10:38:14;;;;;;;0.88;0.88;;;;;;;12.27;71.23;101096.91;5090655;28;20253;-75
2023/12/19 10:40:40;;;;;;;0.82;0.82;;;;;;;12.33;70.91;101089.28;5076600;28;20209;-76
2023/12/19 10:43:07;;;;;;;0.50;0.50;;;;;;;12.29;70.83;101079.66;5090527;28;20210;-76
2023/12/19 10:45:34;;;;;;;0.60;0.60;;;;;;;12.35;71.08;101077.19;5090719;28;20206;-75
2023/12/19 10:48:01;;;;;;;1.02;0.77;;;;;;;12.32;72.80;101077.13;5048157;28;20198;-74
2023/12/19 10:50:29;;;;;;;1.08;1.08;;;;;;;12.39;73.12;101076.41;5048381;28;20202;-75
2023/12/19 10:53:02;;;;;;;0.70;0.70;;;;;;;12.48;71.41;101060.16;5089972;28;20202;-74
2023/12/19 10:55:37;;;;;;;0.80;0.80;;;;;;;12.52;71.44;101064.56;5090751;28;20208;-76
2023/12/19 10:58:05;;;;;;;2.20;1.55;;;;;;;12.51;71.42;101043.72;5090377;28;20225;-75
2023/12/19 11:00:34;;;;;;;0.80;0.80;;;;;;;12.57;70.20;101059.47;5090656;28;20226;-76
2023/12/19 11:03:12;;;;;;;1.00;1.00;;;;;;;12.66;69.72;101054.50;5089893;28;20583;-76
2023/12/19 11:05:42;;;;;;;0.80;0.80;;;;;;;12.47;69.96;101015.88;5090710;28;20678;-77
2023/12/19 11:08:13;;;;;;;0.80;0.80;;;;;;;12.72;70.20;101049.41;5091514;28;20202;-76
2023/12/19 11:10:43;;;;;;;0.70;0.70;;;;;;;12.65;70.13;101032.78;5059358;28;20270;-77
2023/12/19 11:13:12;;;;;;;1.08;1.08;;;;;;;12.66;69.69;101012.84;5094226;28;20213;-77
2023/12/19 11:15:46;;;;;;;1.02;1.02;;;;;;;12.76;71.01;101027.81;5094577;28;20301;-77
2023/12/19 11:18:19;;;;;;;1.00;0.95;;;;;;;12.37;69.71;100940.28;5088426;28;20225;-77
2023/12/19 11:20:52;;;;;;;1.13;1.13;;;;;;;13.01;68.91;101018.78;5092981;28;20206;-77
2023/12/19 11:23:32;;;;;;;0.82;0.82;;;;;;;13.00;69.00;101017.91;5094047;28;20202;-76
2023/12/19 11:26:06;;;;;;;1.20;1.17;;;;;;;13.03;69.19;101017.06;5081594;28;20198;-77
2023/12/19 11:28:37;;;;;;;0.80;0.80;;;;;;;13.08;70.15;101018.94;5094508;28;20692;-77
2023/12/19 11:31:04;;;;;;;1.15;1.15;;;;;;;13.08;69.07;101008.53;5093981;28;20198;-77
2023/12/19 11:33:37;;;;;;;1.45;1.35;;;;;;;12.97;68.38;100991.81;5093714;28;20308;-78